sensor_id;sensor_type;location;lat;lon;timestamp;P1;durP1;ratioP1;P2;durP2;ratioP2
69596;SDS011;70000;51.176;-115.568;2023-07-20T00:00:00;8.60;;;5.30;;
69596;SDS011;70000;51.176;-115.568;2023-07-20T00:02:43;9.20;;;5.90;;
69596;SDS011;70000;51.176;-115.568;2023-07-20T00:05:12;8.50;;;5.10;;
69596;SDS011;70000;51.176;-115.568;2023-07-20T00:07:41;10.00;;;6.60;;
69596;SDS011;70000;51.176;-115.568;2023-07-20T00:10:09;9.60;;;5.70;;
69596;SDS011;70000;51.176;-115.568;2023-07-20T00:12:38;10.30;;;6.20;;
69596;SDS011;70000;51.176;-115.568;2023-07-20T00:15:08;10.80;;;6.70;;
69596;SDS011;70000;51.176;-115.568;2023-07-20T00:17:37;9.70;;;6.70;;
69596;SDS011;70000;51.176;-115.568;2023-07-20T00:20:08;9.70;;;5.90;;
69596;SDS011;70000;51.176;-115.568;2023-07-20T00:22:37;9.80;;;6.00;;
69596;SDS011;70000;51.176;-115.568;2023-07-20T00:25:06;8.70;;;5.50;;
69596;SDS011;70000;51.176;-115.568;2023-07-20T00:27:38;9.60;;;6.00;;
69596;SDS011;70000;51.176;-115.568;2023-07-20T00:30:07;8.80;;;5.40;;
69596;SDS011;70000;51.176;-115.568;2023-07-20T00:32:39;9.40;;;6.10;;
69596;SDS011;70000;51.176;-115.568;2023-07-20T00:35:19;9.90;;;6.10;;
69596;SDS011;70000;51.176;-115.568;2023-07-20T00:37:48;9.30;;;6.10;;
69596;SDS011;70000;51.176;-115.568;2023-07-20T00:40:22;9.30;;;5.80;;
69596;SDS011;70000;51.176;-115.568;2023-07-20T00:42:58;9.10;;;5.60;;
69596;SDS011;70000;51.176;-115.568;2023-07-20T00:45:27;9.90;;;5.70;;
69596;SDS011;70000;51.176;-115.568;2023-07-20T00:48:12;8.60;;;4.80;;
69596;SDS011;70000;51.176;-115.568;2023-07-20T00:50:44;8.50;;;5.30;;
69596;SDS011;70000;51.176;-115.568;2023-07-20T00:53:14;8.00;;;4.70;;
69596;SDS011;70000;51.176;-115.568;2023-07-20T00:55:44;8.90;;;4.40;;
69596;SDS011;70000;51.176;-115.568;2023-07-20T00:58:13;9.50;;;5.50;;
69596;SDS011;70000;51.176;-115.568;2023-07-20T01:01:01;8.50;;;5.30;;
69596;SDS011;70000;51.176;-115.568;2023-07-20T01:03:36;9.80;;;5.60;;
69596;SDS011;70000;51.176;-115.568;2023-07-20T01:06:18;7.90;;;4.90;;
69596;SDS011;70000;51.176;-115.568;2023-07-20T01:12:05;8.80;;;5.40;;
69596;SDS011;70000;51.176;-115.568;2023-07-20T01:14:42;8.60;;;5.10;;
69596;SDS011;70000;51.176;-115.568;2023-07-20T01:32:10;10.00;;;6.00;;
69596;SDS011;70000;51.176;-115.568;2023-07-20T01:34:41;8.60;;;5.60;;
69596;SDS011;70000;51.176;-115.568;2023-07-20T01:37:14;10.30;;;7.00;;
69596;SDS011;70000;51.176;-115.568;2023-07-20T01:39:48;10.00;;;5.60;;
69596;SDS011;70000;51.176;-115.568;2023-07-20T01:42:21;9.60;;;5.30;;
69596;SDS011;70000;51.176;-115.568;2023-07-20T01:44:54;9.00;;;5.90;;
69596;SDS011;70000;51.176;-115.568;2023-07-20T01:47:24;10.10;;;6.10;;
69596;SDS011;70000;51.176;-115.568;2023-07-20T01:50:10;9.50;;;5.60;;
69596;SDS011;70000;51.176;-115.568;2023-07-20T01:52:40;9.40;;;5.40;;
69596;SDS011;70000;51.176;-115.568;2023-07-20T01:55:10;9.10;;;5.60;;
69596;SDS011;70000;51.176;-115.568;2023-07-20T01:57:39;9.80;;;5.50;;
69596;SDS011;70000;51.176;-115.568;2023-07-20T02:00:12;8.60;;;5.40;;
69596;SDS011;70000;51.176;-115.568;2023-07-20T02:02:42;9.90;;;6.00;;
69596;SDS011;70000;51.176;-115.568;2023-07-20T02:05:11;11.00;;;6.50;;
69596;SDS011;70000;51.176;-115.568;2023-07-20T02:07:43;10.60;;;6.50;;
69596;SDS011;70000;51.176;-115.568;2023-07-20T02:10:16;17.20;;;6.50;;
69596;SDS011;70000;51.176;-115.568;2023-07-20T02:12:46;9.60;;;5.80;;
69596;SDS011;70000;51.176;-115.568;2023-07-20T02:15:16;11.60;;;6.40;;
69596;SDS011;70000;51.176;-115.568;2023-07-20T02:17:47;10.20;;;7.10;;
69596;SDS011;70000;51.176;-115.568;2023-07-20T02:20:21;11.20;;;7.20;;
69596;SDS011;70000;51.176;-115.568;2023-07-20T02:22:55;11.40;;;6.00;;
69596;SDS011;70000;51.176;-115.568;2023-07-20T02:25:25;10.10;;;6.50;;
69596;SDS011;70000;51.176;-115.568;2023-07-20T02:27:57;10.10;;;6.00;;
69596;SDS011;70000;51.176;-115.568;2023-07-20T02:30:30;11.40;;;5.50;;
69596;SDS011;70000;51.176;-115.568;2023-07-20T02:33:04;12.60;;;7.10;;
69596;SDS011;70000;51.176;-115.568;2023-07-20T02:35:34;13.00;;;9.10;;
69596;SDS011;70000;51.176;-115.568;2023-07-20T02:38:04;15.20;;;10.50;;
69596;SDS011;70000;51.176;-115.568;2023-07-20T02:40:35;17.90;;;10.50;;
69596;SDS011;70000;51.176;-115.568;2023-07-20T02:43:04;15.80;;;10.00;;
69596;SDS011;70000;51.176;-115.568;2023-07-20T02:45:34;16.20;;;9.60;;
69596;SDS011;70000;51.176;-115.568;2023-07-20T02:48:04;16.00;;;9.40;;
69596;SDS011;70000;51.176;-115.568;2023-07-20T02:50:36;15.30;;;10.20;;
69596;SDS011;70000;51.176;-115.568;2023-07-20T02:53:06;14.40;;;9.60;;
69596;SDS011;70000;51.176;-115.568;2023-07-20T02:55:35;14.40;;;10.20;;
69596;SDS011;70000;51.176;-115.568;2023-07-20T02:58:05;14.20;;;9.60;;
69596;SDS011;70000;51.176;-115.568;2023-07-20T03:00:34;15.20;;;9.50;;
69596;SDS011;70000;51.176;-115.568;2023-07-20T03:03:04;13.40;;;9.10;;
69596;SDS011;70000;51.176;-115.568;2023-07-20T03:05:41;15.00;;;9.10;;
69596;SDS011;70000;51.176;-115.568;2023-07-20T03:08:11;14.40;;;9.80;;
69596;SDS011;70000;51.176;-115.568;2023-07-20T03:10:41;14.20;;;9.60;;
69596;SDS011;70000;51.176;-115.568;2023-07-20T03:13:10;15.50;;;9.90;;
69596;SDS011;70000;51.176;-115.568;2023-07-20T03:15:41;12.90;;;9.00;;
69596;SDS011;70000;51.176;-115.568;2023-07-20T03:18:11;15.70;;;9.90;;
69596;SDS011;70000;51.176;-115.568;2023-07-20T03:20:40;14.50;;;9.20;;
69596;SDS011;70000;51.176;-115.568;2023-07-20T03:23:10;13.60;;;9.50;;
69596;SDS011;70000;51.176;-115.568;2023-07-20T03:25:39;14.70;;;9.80;;
69596;SDS011;70000;51.176;-115.568;2023-07-20T03:28:09;16.20;;;9.40;;
69596;SDS011;70000;51.176;-115.568;2023-07-20T03:30:39;15.30;;;9.40;;
69596;SDS011;70000;51.176;-115.568;2023-07-20T03:33:09;14.00;;;9.50;;
69596;SDS011;70000;51.176;-115.568;2023-07-20T03:35:38;16.10;;;9.50;;
69596;SDS011;70000;51.176;-115.568;2023-07-20T03:38:12;15.50;;;9.10;;
69596;SDS011;70000;51.176;-115.568;2023-07-20T03:40:55;16.40;;;10.70;;
69596;SDS011;70000;51.176;-115.568;2023-07-20T03:43:28;17.00;;;10.30;;
69596;SDS011;70000;51.176;-115.568;2023-07-20T03:45:58;17.20;;;10.90;;
69596;SDS011;70000;51.176;-115.568;2023-07-20T03:48:27;16.80;;;11.30;;
69596;SDS011;70000;51.176;-115.568;2023-07-20T03:50:57;16.40;;;10.70;;
69596;SDS011;70000;51.176;-115.568;2023-07-20T03:53:28;14.30;;;10.00;;
69596;SDS011;70000;51.176;-115.568;2023-07-20T03:55:57;17.30;;;11.30;;
69596;SDS011;70000;51.176;-115.568;2023-07-20T03:58:27;14.90;;;10.40;;
69596;SDS011;70000;51.176;-115.568;2023-07-20T04:00:58;16.60;;;10.70;;
69596;SDS011;70000;51.176;-115.568;2023-07-20T04:03:29;21.60;;;11.20;;
69596;SDS011;70000;51.176;-115.568;2023-07-20T04:06:02;15.10;;;10.30;;
69596;SDS011;70000;51.176;-115.568;2023-07-20T04:08:32;16.50;;;10.90;;
69596;SDS011;70000;51.176;-115.568;2023-07-20T04:11:02;17.30;;;10.50;;
69596;SDS011;70000;51.176;-115.568;2023-07-20T04:13:33;16.50;;;10.30;;
69596;SDS011;70000;51.176;-115.568;2023-07-20T04:16:04;17.00;;;10.50;;
69596;SDS011;70000;51.176;-115.568;2023-07-20T04:18:33;16.30;;;11.00;;
69596;SDS011;70000;51.176;-115.568;2023-07-20T04:21:03;18.40;;;11.40;;
69596;SDS011;70000;51.176;-115.568;2023-07-20T04:23:33;17.10;;;10.70;;
69596;SDS011;70000;51.176;-115.568;2023-07-20T04:26:04;16.10;;;11.00;;
69596;SDS011;70000;51.176;-115.568;2023-07-20T04:28:36;16.70;;;10.90;;
69596;SDS011;70000;51.176;-115.568;2023-07-20T04:31:16;16.20;;;10.10;;
69596;SDS011;70000;51.176;-115.568;2023-07-20T04:33:46;15.60;;;10.60;;
69596;SDS011;70000;51.176;-115.568;2023-07-20T04:36:16;15.90;;;10.80;;
69596;SDS011;70000;51.176;-115.568;2023-07-20T04:38:49;16.90;;;11.00;;
69596;SDS011;70000;51.176;-115.568;2023-07-20T04:41:22;17.70;;;10.70;;
69596;SDS011;70000;51.176;-115.568;2023-07-20T04:43:56;17.40;;;11.30;;
69596;SDS011;70000;51.176;-115.568;2023-07-20T04:46:25;19.80;;;10.80;;
69596;SDS011;70000;51.176;-115.568;2023-07-20T04:48:55;16.00;;;10.40;;
69596;SDS011;70000;51.176;-115.568;2023-07-20T04:51:34;15.60;;;10.50;;
69596;SDS011;70000;51.176;-115.568;2023-07-20T04:54:04;16.00;;;10.60;;
69596;SDS011;70000;51.176;-115.568;2023-07-20T04:56:34;16.10;;;11.20;;
69596;SDS011;70000;51.176;-115.568;2023-07-20T04:59:03;15.00;;;10.30;;
69596;SDS011;70000;51.176;-115.568;2023-07-20T05:01:34;15.50;;;10.50;;
69596;SDS011;70000;51.176;-115.568;2023-07-20T05:04:04;15.60;;;10.20;;
69596;SDS011;70000;51.176;-115.568;2023-07-20T05:06:36;18.10;;;11.10;;
69596;SDS011;70000;51.176;-115.568;2023-07-20T05:09:08;17.90;;;11.10;;
69596;SDS011;70000;51.176;-115.568;2023-07-20T05:11:38;17.20;;;10.90;;
69596;SDS011;70000;51.176;-115.568;2023-07-20T05:14:07;16.80;;;10.60;;
69596;SDS011;70000;51.176;-115.568;2023-07-20T05:16:37;17.00;;;11.30;;
69596;SDS011;70000;51.176;-115.568;2023-07-20T05:19:07;15.90;;;10.60;;
69596;SDS011;70000;51.176;-115.568;2023-07-20T05:21:37;18.70;;;11.30;;
69596;SDS011;70000;51.176;-115.568;2023-07-20T05:24:07;18.30;;;11.70;;
69596;SDS011;70000;51.176;-115.568;2023-07-20T05:26:39;16.40;;;11.00;;
69596;SDS011;70000;51.176;-115.568;2023-07-20T05:29:08;17.30;;;11.30;;
69596;SDS011;70000;51.176;-115.568;2023-07-20T05:31:39;16.40;;;10.80;;
69596;SDS011;70000;51.176;-115.568;2023-07-20T05:34:08;15.20;;;10.70;;
69596;SDS011;70000;51.176;-115.568;2023-07-20T05:36:38;17.00;;;10.80;;
69596;SDS011;70000;51.176;-115.568;2023-07-20T05:39:24;18.40;;;10.80;;
69596;SDS011;70000;51.176;-115.568;2023-07-20T05:41:54;16.60;;;10.50;;
69596;SDS011;70000;51.176;-115.568;2023-07-20T05:44:24;16.50;;;10.10;;
69596;SDS011;70000;51.176;-115.568;2023-07-20T05:46:53;17.10;;;10.90;;
69596;SDS011;70000;51.176;-115.568;2023-07-20T05:49:25;17.60;;;10.60;;
69596;SDS011;70000;51.176;-115.568;2023-07-20T05:51:55;18.10;;;10.80;;
69596;SDS011;70000;51.176;-115.568;2023-07-20T05:54:28;18.40;;;10.70;;
69596;SDS011;70000;51.176;-115.568;2023-07-20T05:56:58;18.60;;;10.60;;
69596;SDS011;70000;51.176;-115.568;2023-07-20T05:59:27;17.10;;;10.70;;
69596;SDS011;70000;51.176;-115.568;2023-07-20T06:02:00;17.90;;;11.10;;
69596;SDS011;70000;51.176;-115.568;2023-07-20T06:04:29;17.30;;;10.80;;
69596;SDS011;70000;51.176;-115.568;2023-07-20T06:06:58;18.30;;;11.80;;
69596;SDS011;70000;51.176;-115.568;2023-07-20T06:09:28;17.70;;;11.50;;
69596;SDS011;70000;51.176;-115.568;2023-07-20T06:12:01;17.20;;;10.90;;
69596;SDS011;70000;51.176;-115.568;2023-07-20T06:14:35;16.20;;;10.30;;
69596;SDS011;70000;51.176;-115.568;2023-07-20T06:17:05;14.80;;;9.70;;
69596;SDS011;70000;51.176;-115.568;2023-07-20T06:19:35;14.80;;;9.30;;
69596;SDS011;70000;51.176;-115.568;2023-07-20T06:22:06;15.20;;;10.10;;
69596;SDS011;70000;51.176;-115.568;2023-07-20T06:24:36;13.50;;;9.10;;
69596;SDS011;70000;51.176;-115.568;2023-07-20T06:27:15;13.90;;;8.50;;
69596;SDS011;70000;51.176;-115.568;2023-07-20T06:29:45;13.60;;;8.00;;
69596;SDS011;70000;51.176;-115.568;2023-07-20T06:32:14;14.40;;;9.20;;
69596;SDS011;70000;51.176;-115.568;2023-07-20T06:34:45;15.90;;;9.30;;
69596;SDS011;70000;51.176;-115.568;2023-07-20T06:37:15;14.80;;;9.40;;
69596;SDS011;70000;51.176;-115.568;2023-07-20T06:39:48;15.40;;;9.50;;
69596;SDS011;70000;51.176;-115.568;2023-07-20T06:42:21;17.90;;;10.00;;
69596;SDS011;70000;51.176;-115.568;2023-07-20T06:44:52;15.80;;;9.00;;
69596;SDS011;70000;51.176;-115.568;2023-07-20T06:47:21;15.00;;;9.80;;
69596;SDS011;70000;51.176;-115.568;2023-07-20T06:49:52;15.40;;;9.90;;
69596;SDS011;70000;51.176;-115.568;2023-07-20T06:52:22;15.70;;;10.10;;
69596;SDS011;70000;51.176;-115.568;2023-07-20T06:54:51;15.60;;;10.70;;
69596;SDS011;70000;51.176;-115.568;2023-07-20T06:57:21;15.10;;;9.60;;
69596;SDS011;70000;51.176;-115.568;2023-07-20T06:59:53;15.10;;;9.50;;
69596;SDS011;70000;51.176;-115.568;2023-07-20T07:02:22;16.50;;;9.30;;
69596;SDS011;70000;51.176;-115.568;2023-07-20T07:04:52;14.30;;;9.10;;
69596;SDS011;70000;51.176;-115.568;2023-07-20T07:07:26;15.00;;;9.30;;
69596;SDS011;70000;51.176;-115.568;2023-07-20T07:09:55;13.50;;;8.70;;
69596;SDS011;70000;51.176;-115.568;2023-07-20T07:12:26;14.40;;;8.90;;
69596;SDS011;70000;51.176;-115.568;2023-07-20T07:14:55;13.20;;;8.90;;
69596;SDS011;70000;51.176;-115.568;2023-07-20T07:17:25;13.90;;;9.00;;
69596;SDS011;70000;51.176;-115.568;2023-07-20T07:19:55;13.10;;;8.20;;
69596;SDS011;70000;51.176;-115.568;2023-07-20T07:22:25;14.30;;;8.90;;
69596;SDS011;70000;51.176;-115.568;2023-07-20T07:24:57;14.50;;;8.70;;
69596;SDS011;70000;51.176;-115.568;2023-07-20T07:27:27;14.50;;;8.40;;
69596;SDS011;70000;51.176;-115.568;2023-07-20T07:30:00;13.10;;;8.00;;
69596;SDS011;70000;51.176;-115.568;2023-07-20T07:32:30;13.70;;;8.50;;
69596;SDS011;70000;51.176;-115.568;2023-07-20T07:35:00;15.60;;;8.90;;
69596;SDS011;70000;51.176;-115.568;2023-07-20T07:37:31;13.40;;;8.70;;
69596;SDS011;70000;51.176;-115.568;2023-07-20T07:40:13;14.40;;;8.70;;
69596;SDS011;70000;51.176;-115.568;2023-07-20T07:42:50;13.80;;;8.60;;
69596;SDS011;70000;51.176;-115.568;2023-07-20T07:45:19;12.70;;;8.30;;
69596;SDS011;70000;51.176;-115.568;2023-07-20T07:47:49;13.40;;;9.00;;
69596;SDS011;70000;51.176;-115.568;2023-07-20T07:50:19;13.70;;;9.00;;
69596;SDS011;70000;51.176;-115.568;2023-07-20T07:52:48;14.70;;;8.40;;
69596;SDS011;70000;51.176;-115.568;2023-07-20T07:55:19;13.60;;;8.30;;
69596;SDS011;70000;51.176;-115.568;2023-07-20T07:57:51;14.00;;;8.20;;
69596;SDS011;70000;51.176;-115.568;2023-07-20T08:00:27;14.90;;;8.40;;
69596;SDS011;70000;51.176;-115.568;2023-07-20T08:02:59;12.80;;;7.80;;
69596;SDS011;70000;51.176;-115.568;2023-07-20T08:05:28;13.80;;;7.60;;
69596;SDS011;70000;51.176;-115.568;2023-07-20T08:07:58;14.00;;;7.80;;
69596;SDS011;70000;51.176;-115.568;2023-07-20T08:10:31;14.40;;;7.50;;
69596;SDS011;70000;51.176;-115.568;2023-07-20T08:13:01;14.10;;;7.50;;
69596;SDS011;70000;51.176;-115.568;2023-07-20T08:15:33;14.00;;;8.70;;
69596;SDS011;70000;51.176;-115.568;2023-07-20T08:18:06;11.90;;;7.90;;
69596;SDS011;70000;51.176;-115.568;2023-07-20T08:20:36;13.80;;;8.20;;
69596;SDS011;70000;51.176;-115.568;2023-07-20T08:23:06;12.90;;;8.20;;
69596;SDS011;70000;51.176;-115.568;2023-07-20T08:25:38;14.00;;;8.60;;
69596;SDS011;70000;51.176;-115.568;2023-07-20T08:28:13;13.60;;;8.00;;
69596;SDS011;70000;51.176;-115.568;2023-07-20T08:30:54;14.70;;;8.60;;
69596;SDS011;70000;51.176;-115.568;2023-07-20T08:33:23;13.50;;;8.20;;
69596;SDS011;70000;51.176;-115.568;2023-07-20T08:35:56;16.30;;;8.50;;
69596;SDS011;70000;51.176;-115.568;2023-07-20T08:38:25;13.80;;;8.10;;
69596;SDS011;70000;51.176;-115.568;2023-07-20T08:40:54;13.30;;;8.30;;
69596;SDS011;70000;51.176;-115.568;2023-07-20T08:43:24;13.60;;;8.40;;
69596;SDS011;70000;51.176;-115.568;2023-07-20T08:45:57;13.10;;;8.00;;
69596;SDS011;70000;51.176;-115.568;2023-07-20T08:48:28;13.80;;;8.30;;
69596;SDS011;70000;51.176;-115.568;2023-07-20T08:51:00;13.00;;;8.10;;
69596;SDS011;70000;51.176;-115.568;2023-07-20T08:53:31;13.60;;;8.60;;
69596;SDS011;70000;51.176;-115.568;2023-07-20T08:56:02;14.50;;;8.60;;
69596;SDS011;70000;51.176;-115.568;2023-07-20T08:58:34;12.90;;;8.00;;
69596;SDS011;70000;51.176;-115.568;2023-07-20T09:01:04;14.30;;;8.00;;
69596;SDS011;70000;51.176;-115.568;2023-07-20T09:03:34;13.40;;;7.70;;
69596;SDS011;70000;51.176;-115.568;2023-07-20T09:06:06;14.70;;;8.40;;
69596;SDS011;70000;51.176;-115.568;2023-07-20T09:08:38;13.70;;;8.50;;
69596;SDS011;70000;51.176;-115.568;2023-07-20T09:11:12;14.70;;;8.20;;
69596;SDS011;70000;51.176;-115.568;2023-07-20T09:13:44;13.80;;;8.30;;
69596;SDS011;70000;51.176;-115.568;2023-07-20T09:16:16;14.90;;;7.50;;
69596;SDS011;70000;51.176;-115.568;2023-07-20T09:18:45;14.20;;;7.20;;
69596;SDS011;70000;51.176;-115.568;2023-07-20T09:21:18;17.50;;;9.60;;
69596;SDS011;70000;51.176;-115.568;2023-07-20T09:23:56;13.60;;;8.00;;
69596;SDS011;70000;51.176;-115.568;2023-07-20T09:26:26;13.70;;;7.80;;
69596;SDS011;70000;51.176;-115.568;2023-07-20T09:28:59;13.10;;;7.60;;
69596;SDS011;70000;51.176;-115.568;2023-07-20T09:31:28;15.10;;;7.80;;
69596;SDS011;70000;51.176;-115.568;2023-07-20T09:34:07;14.90;;;8.30;;
69596;SDS011;70000;51.176;-115.568;2023-07-20T09:36:37;14.90;;;7.80;;
69596;SDS011;70000;51.176;-115.568;2023-07-20T09:39:10;15.70;;;8.30;;
69596;SDS011;70000;51.176;-115.568;2023-07-20T09:41:40;13.80;;;8.20;;
69596;SDS011;70000;51.176;-115.568;2023-07-20T09:44:16;13.40;;;8.30;;
69596;SDS011;70000;51.176;-115.568;2023-07-20T09:46:54;15.00;;;8.30;;
69596;SDS011;70000;51.176;-115.568;2023-07-20T09:49:26;14.40;;;8.30;;
69596;SDS011;70000;51.176;-115.568;2023-07-20T09:52:00;14.30;;;8.80;;
69596;SDS011;70000;51.176;-115.568;2023-07-20T09:54:31;15.40;;;8.40;;
69596;SDS011;70000;51.176;-115.568;2023-07-20T09:57:02;13.80;;;8.10;;
69596;SDS011;70000;51.176;-115.568;2023-07-20T09:59:32;16.10;;;8.30;;
69596;SDS011;70000;51.176;-115.568;2023-07-20T10:02:03;14.30;;;8.20;;
69596;SDS011;70000;51.176;-115.568;2023-07-20T10:04:41;13.90;;;8.00;;
69596;SDS011;70000;51.176;-115.568;2023-07-20T10:07:15;13.70;;;7.90;;
69596;SDS011;70000;51.176;-115.568;2023-07-20T10:09:46;14.40;;;8.60;;
69596;SDS011;70000;51.176;-115.568;2023-07-20T10:12:18;14.50;;;8.40;;
69596;SDS011;70000;51.176;-115.568;2023-07-20T10:15:10;14.40;;;8.50;;
69596;SDS011;70000;51.176;-115.568;2023-07-20T10:20:53;13.00;;;7.60;;
69596;SDS011;70000;51.176;-115.568;2023-07-20T10:23:29;14.50;;;8.10;;
69596;SDS011;70000;51.176;-115.568;2023-07-20T10:25:59;13.70;;;8.10;;
69596;SDS011;70000;51.176;-115.568;2023-07-20T10:28:31;14.30;;;7.80;;
69596;SDS011;70000;51.176;-115.568;2023-07-20T10:31:03;15.80;;;8.70;;
69596;SDS011;70000;51.176;-115.568;2023-07-20T10:33:33;14.00;;;8.20;;
69596;SDS011;70000;51.176;-115.568;2023-07-20T10:36:04;14.60;;;8.50;;
69596;SDS011;70000;51.176;-115.568;2023-07-20T10:41:31;14.60;;;8.30;;
69596;SDS011;70000;51.176;-115.568;2023-07-20T10:44:05;14.60;;;8.70;;
69596;SDS011;70000;51.176;-115.568;2023-07-20T10:49:10;16.00;;;8.70;;
69596;SDS011;70000;51.176;-115.568;2023-07-20T10:51:45;14.10;;;8.10;;
69596;SDS011;70000;51.176;-115.568;2023-07-20T10:56:48;15.60;;;8.70;;
69596;SDS011;70000;51.176;-115.568;2023-07-20T11:01:57;15.30;;;8.50;;
69596;SDS011;70000;51.176;-115.568;2023-07-20T11:04:40;14.20;;;8.40;;
69596;SDS011;70000;51.176;-115.568;2023-07-20T11:07:15;15.00;;;8.80;;
69596;SDS011;70000;51.176;-115.568;2023-07-20T11:09:45;14.40;;;8.00;;
69596;SDS011;70000;51.176;-115.568;2023-07-20T11:12:17;13.80;;;8.50;;
69596;SDS011;70000;51.176;-115.568;2023-07-20T11:14:57;14.20;;;7.60;;
69596;SDS011;70000;51.176;-115.568;2023-07-20T11:17:32;14.60;;;8.70;;
69596;SDS011;70000;51.176;-115.568;2023-07-20T11:20:12;15.30;;;8.10;;
69596;SDS011;70000;51.176;-115.568;2023-07-20T11:22:46;13.20;;;8.20;;
69596;SDS011;70000;51.176;-115.568;2023-07-20T11:25:16;14.50;;;8.10;;
69596;SDS011;70000;51.176;-115.568;2023-07-20T11:27:46;15.70;;;8.50;;
69596;SDS011;70000;51.176;-115.568;2023-07-20T11:30:17;15.60;;;9.10;;
69596;SDS011;70000;51.176;-115.568;2023-07-20T11:32:49;15.00;;;9.30;;
69596;SDS011;70000;51.176;-115.568;2023-07-20T11:35:18;15.30;;;9.00;;
69596;SDS011;70000;51.176;-115.568;2023-07-20T11:37:48;14.50;;;8.40;;
69596;SDS011;70000;51.176;-115.568;2023-07-20T11:40:17;16.10;;;8.70;;
69596;SDS011;70000;51.176;-115.568;2023-07-20T11:42:47;14.90;;;8.80;;
69596;SDS011;70000;51.176;-115.568;2023-07-20T11:45:21;14.30;;;8.70;;
69596;SDS011;70000;51.176;-115.568;2023-07-20T11:47:53;15.90;;;8.70;;
69596;SDS011;70000;51.176;-115.568;2023-07-20T11:50:23;13.30;;;8.40;;
69596;SDS011;70000;51.176;-115.568;2023-07-20T11:52:52;16.80;;;9.30;;
69596;SDS011;70000;51.176;-115.568;2023-07-20T11:55:22;16.10;;;9.30;;
69596;SDS011;70000;51.176;-115.568;2023-07-20T11:58:04;15.40;;;8.90;;
69596;SDS011;70000;51.176;-115.568;2023-07-20T12:00:37;14.30;;;8.60;;
69596;SDS011;70000;51.176;-115.568;2023-07-20T12:03:09;14.20;;;8.80;;
69596;SDS011;70000;51.176;-115.568;2023-07-20T12:05:42;15.50;;;8.30;;
69596;SDS011;70000;51.176;-115.568;2023-07-20T12:08:27;12.80;;;7.70;;
69596;SDS011;70000;51.176;-115.568;2023-07-20T12:10:56;14.70;;;8.20;;
69596;SDS011;70000;51.176;-115.568;2023-07-20T12:13:45;14.30;;;8.00;;
69596;SDS011;70000;51.176;-115.568;2023-07-20T12:16:16;15.60;;;8.60;;
69596;SDS011;70000;51.176;-115.568;2023-07-20T12:18:45;15.90;;;9.30;;
69596;SDS011;70000;51.176;-115.568;2023-07-20T12:21:14;14.10;;;8.40;;
69596;SDS011;70000;51.176;-115.568;2023-07-20T12:23:43;15.10;;;8.50;;
69596;SDS011;70000;51.176;-115.568;2023-07-20T12:26:14;16.20;;;8.80;;
69596;SDS011;70000;51.176;-115.568;2023-07-20T12:28:46;13.60;;;8.20;;
69596;SDS011;70000;51.176;-115.568;2023-07-20T12:31:15;15.80;;;8.80;;
69596;SDS011;70000;51.176;-115.568;2023-07-20T12:33:46;15.50;;;8.50;;
69596;SDS011;70000;51.176;-115.568;2023-07-20T12:36:15;15.40;;;8.40;;
69596;SDS011;70000;51.176;-115.568;2023-07-20T12:38:45;14.80;;;8.60;;
69596;SDS011;70000;51.176;-115.568;2023-07-20T12:41:15;15.60;;;8.70;;
69596;SDS011;70000;51.176;-115.568;2023-07-20T12:43:48;16.30;;;9.60;;
69596;SDS011;70000;51.176;-115.568;2023-07-20T12:46:18;15.30;;;9.10;;
69596;SDS011;70000;51.176;-115.568;2023-07-20T12:48:48;15.60;;;8.80;;
69596;SDS011;70000;51.176;-115.568;2023-07-20T12:51:18;14.30;;;8.40;;
69596;SDS011;70000;51.176;-115.568;2023-07-20T12:53:48;15.30;;;8.60;;
69596;SDS011;70000;51.176;-115.568;2023-07-20T12:56:17;15.80;;;9.20;;
69596;SDS011;70000;51.176;-115.568;2023-07-20T12:58:50;14.40;;;8.60;;
69596;SDS011;70000;51.176;-115.568;2023-07-20T13:01:20;15.40;;;9.10;;
69596;SDS011;70000;51.176;-115.568;2023-07-20T13:03:49;16.70;;;9.00;;
69596;SDS011;70000;51.176;-115.568;2023-07-20T13:06:21;15.50;;;8.80;;
69596;SDS011;70000;51.176;-115.568;2023-07-20T13:08:53;14.70;;;8.80;;
69596;SDS011;70000;51.176;-115.568;2023-07-20T13:11:24;13.50;;;8.90;;
69596;SDS011;70000;51.176;-115.568;2023-07-20T13:13:54;14.10;;;8.40;;
69596;SDS011;70000;51.176;-115.568;2023-07-20T13:16:23;13.70;;;7.70;;
69596;SDS011;70000;51.176;-115.568;2023-07-20T13:18:53;13.40;;;7.40;;
69596;SDS011;70000;51.176;-115.568;2023-07-20T13:21:22;14.90;;;8.30;;
69596;SDS011;70000;51.176;-115.568;2023-07-20T13:23:53;14.50;;;8.50;;
69596;SDS011;70000;51.176;-115.568;2023-07-20T13:26:22;14.00;;;8.30;;
69596;SDS011;70000;51.176;-115.568;2023-07-20T13:28:52;15.00;;;8.30;;
69596;SDS011;70000;51.176;-115.568;2023-07-20T13:31:22;14.80;;;8.50;;
69596;SDS011;70000;51.176;-115.568;2023-07-20T13:33:51;15.30;;;8.60;;
69596;SDS011;70000;51.176;-115.568;2023-07-20T13:36:26;13.90;;;8.40;;
69596;SDS011;70000;51.176;-115.568;2023-07-20T13:38:56;15.30;;;8.10;;
69596;SDS011;70000;51.176;-115.568;2023-07-20T13:41:26;14.60;;;8.70;;
69596;SDS011;70000;51.176;-115.568;2023-07-20T13:43:56;14.50;;;8.40;;
69596;SDS011;70000;51.176;-115.568;2023-07-20T13:46:26;13.60;;;7.90;;
69596;SDS011;70000;51.176;-115.568;2023-07-20T13:48:58;13.70;;;8.40;;
69596;SDS011;70000;51.176;-115.568;2023-07-20T13:51:27;14.90;;;8.80;;
69596;SDS011;70000;51.176;-115.568;2023-07-20T13:53:57;15.30;;;8.60;;
69596;SDS011;70000;51.176;-115.568;2023-07-20T13:56:46;14.10;;;8.30;;
69596;SDS011;70000;51.176;-115.568;2023-07-20T13:59:16;16.00;;;8.50;;
69596;SDS011;70000;51.176;-115.568;2023-07-20T14:01:46;14.20;;;8.10;;
69596;SDS011;70000;51.176;-115.568;2023-07-20T14:04:18;14.30;;;8.20;;
69596;SDS011;70000;51.176;-115.568;2023-07-20T14:06:48;16.00;;;8.70;;
69596;SDS011;70000;51.176;-115.568;2023-07-20T14:09:18;14.00;;;8.00;;
69596;SDS011;70000;51.176;-115.568;2023-07-20T14:11:47;13.20;;;7.80;;
69596;SDS011;70000;51.176;-115.568;2023-07-20T14:14:19;13.90;;;8.30;;
69596;SDS011;70000;51.176;-115.568;2023-07-20T14:16:52;14.00;;;8.10;;
69596;SDS011;70000;51.176;-115.568;2023-07-20T14:19:23;17.80;;;9.30;;
69596;SDS011;70000;51.176;-115.568;2023-07-20T14:21:52;14.10;;;8.10;;
69596;SDS011;70000;51.176;-115.568;2023-07-20T14:24:23;13.60;;;8.10;;
69596;SDS011;70000;51.176;-115.568;2023-07-20T14:26:55;14.50;;;8.50;;
69596;SDS011;70000;51.176;-115.568;2023-07-20T14:29:24;15.10;;;8.80;;
69596;SDS011;70000;51.176;-115.568;2023-07-20T14:31:54;14.30;;;7.90;;
69596;SDS011;70000;51.176;-115.568;2023-07-20T14:34:23;14.60;;;8.40;;
69596;SDS011;70000;51.176;-115.568;2023-07-20T14:36:52;15.00;;;8.70;;
69596;SDS011;70000;51.176;-115.568;2023-07-20T14:39:21;15.60;;;9.20;;
69596;SDS011;70000;51.176;-115.568;2023-07-20T14:41:53;20.20;;;9.40;;
69596;SDS011;70000;51.176;-115.568;2023-07-20T14:44:23;15.50;;;9.40;;
69596;SDS011;70000;51.176;-115.568;2023-07-20T14:46:52;16.10;;;8.80;;
69596;SDS011;70000;51.176;-115.568;2023-07-20T14:49:40;14.90;;;9.10;;
69596;SDS011;70000;51.176;-115.568;2023-07-20T14:52:09;14.90;;;8.50;;